sensor_id;sensor_type;location;lat;lon;timestamp;P1;durP1;ratioP1;P2;durP2;ratioP2
48813;SDS011;34634;44.108;3.074;2023-05-21T00:01:31;7.22;;;5.20;;
48813;SDS011;34634;44.108;3.074;2023-05-21T00:03:58;7.25;;;5.80;;
48813;SDS011;34634;44.108;3.074;2023-05-21T00:06:24;6.20;;;4.78;;
48813;SDS011;34634;44.108;3.074;2023-05-21T00:08:51;6.32;;;5.55;;
48813;SDS011;34634;44.108;3.074;2023-05-21T00:11:18;6.88;;;5.00;;
48813;SDS011;34634;44.108;3.074;2023-05-21T00:13:44;6.43;;;5.05;;
48813;SDS011;34634;44.108;3.074;2023-05-21T00:16:10;6.25;;;5.43;;
48813;SDS011;34634;44.108;3.074;2023-05-21T00:18:37;9.60;;;6.57;;
48813;SDS011;34634;44.108;3.074;2023-05-21T00:21:06;10.85;;;6.43;;
48813;SDS011;34634;44.108;3.074;2023-05-21T00:23:32;10.05;;;6.00;;
48813;SDS011;34634;44.108;3.074;2023-05-21T00:26:01;9.15;;;6.18;;
48813;SDS011;34634;44.108;3.074;2023-05-21T00:28:28;8.20;;;5.88;;
48813;SDS011;34634;44.108;3.074;2023-05-21T00:30:54;6.25;;;5.65;;
48813;SDS011;34634;44.108;3.074;2023-05-21T00:33:20;6.85;;;5.40;;
48813;SDS011;34634;44.108;3.074;2023-05-21T00:35:51;6.70;;;5.57;;
48813;SDS011;34634;44.108;3.074;2023-05-21T00:38:17;5.95;;;5.22;;
48813;SDS011;34634;44.108;3.074;2023-05-21T00:40:43;6.05;;;5.30;;
48813;SDS011;34634;44.108;3.074;2023-05-21T00:43:10;9.27;;;5.35;;
48813;SDS011;34634;44.108;3.074;2023-05-21T00:45:36;7.88;;;5.75;;
48813;SDS011;34634;44.108;3.074;2023-05-21T00:48:03;10.90;;;5.47;;
48813;SDS011;34634;44.108;3.074;2023-05-21T00:50:30;9.40;;;5.13;;
48813;SDS011;34634;44.108;3.074;2023-05-21T00:52:57;7.22;;;5.32;;
48813;SDS011;34634;44.108;3.074;2023-05-21T00:55:24;7.65;;;5.88;;
48813;SDS011;34634;44.108;3.074;2023-05-21T00:57:50;6.05;;;5.18;;
48813;SDS011;34634;44.108;3.074;2023-05-21T01:00:17;6.45;;;5.80;;
48813;SDS011;34634;44.108;3.074;2023-05-21T01:02:44;9.23;;;6.38;;
48813;SDS011;34634;44.108;3.074;2023-05-21T01:05:10;9.55;;;6.93;;
48813;SDS011;34634;44.108;3.074;2023-05-21T01:07:37;9.75;;;6.13;;
48813;SDS011;34634;44.108;3.074;2023-05-21T01:10:06;8.18;;;5.95;;
48813;SDS011;34634;44.108;3.074;2023-05-21T01:12:33;8.73;;;5.30;;
48813;SDS011;34634;44.108;3.074;2023-05-21T01:15:00;6.20;;;4.85;;
48813;SDS011;34634;44.108;3.074;2023-05-21T01:17:28;6.55;;;5.30;;
48813;SDS011;34634;44.108;3.074;2023-05-21T01:19:56;9.18;;;4.68;;
48813;SDS011;34634;44.108;3.074;2023-05-21T01:22:23;8.43;;;5.03;;
48813;SDS011;34634;44.108;3.074;2023-05-21T01:24:50;11.60;;;5.15;;
48813;SDS011;34634;44.108;3.074;2023-05-21T01:27:17;7.15;;;5.10;;
48813;SDS011;34634;44.108;3.074;2023-05-21T01:29:43;6.10;;;4.80;;
48813;SDS011;34634;44.108;3.074;2023-05-21T01:34:39;8.20;;;5.32;;
48813;SDS011;34634;44.108;3.074;2023-05-21T01:37:16;6.38;;;5.75;;
48813;SDS011;34634;44.108;3.074;2023-05-21T01:39:46;8.25;;;5.82;;
48813;SDS011;34634;44.108;3.074;2023-05-21T01:42:14;6.90;;;5.80;;
48813;SDS011;34634;44.108;3.074;2023-05-21T01:44:41;8.60;;;5.60;;
48813;SDS011;34634;44.108;3.074;2023-05-21T01:47:10;6.80;;;5.18;;
48813;SDS011;34634;44.108;3.074;2023-05-21T01:49:36;6.72;;;5.00;;
48813;SDS011;34634;44.108;3.074;2023-05-21T01:52:03;8.10;;;5.60;;
48813;SDS011;34634;44.108;3.074;2023-05-21T01:54:30;6.43;;;5.43;;
48813;SDS011;34634;44.108;3.074;2023-05-21T01:56:56;6.22;;;5.40;;
48813;SDS011;34634;44.108;3.074;2023-05-21T01:59:22;5.50;;;4.47;;
48813;SDS011;34634;44.108;3.074;2023-05-21T02:01:49;5.90;;;5.32;;
48813;SDS011;34634;44.108;3.074;2023-05-21T02:04:15;6.32;;;5.00;;
48813;SDS011;34634;44.108;3.074;2023-05-21T02:06:41;8.88;;;5.03;;
48813;SDS011;34634;44.108;3.074;2023-05-21T02:09:08;8.18;;;5.53;;
48813;SDS011;34634;44.108;3.074;2023-05-21T02:11:34;7.38;;;5.20;;
48813;SDS011;34634;44.108;3.074;2023-05-21T02:14:01;6.63;;;5.25;;
48813;SDS011;34634;44.108;3.074;2023-05-21T02:16:28;7.05;;;5.28;;
48813;SDS011;34634;44.108;3.074;2023-05-21T02:18:54;5.43;;;4.93;;
48813;SDS011;34634;44.108;3.074;2023-05-21T02:21:22;6.32;;;5.15;;
48813;SDS011;34634;44.108;3.074;2023-05-21T02:23:48;5.90;;;4.57;;
48813;SDS011;34634;44.108;3.074;2023-05-21T02:26:14;6.93;;;4.90;;
48813;SDS011;34634;44.108;3.074;2023-05-21T02:28:42;7.60;;;4.70;;
48813;SDS011;34634;44.108;3.074;2023-05-21T02:31:08;4.93;;;4.43;;
48813;SDS011;34634;44.108;3.074;2023-05-21T02:33:35;5.88;;;4.38;;
48813;SDS011;34634;44.108;3.074;2023-05-21T02:36:02;4.93;;;4.35;;
48813;SDS011;34634;44.108;3.074;2023-05-21T02:38:29;5.57;;;4.82;;
48813;SDS011;34634;44.108;3.074;2023-05-21T02:40:56;5.30;;;4.80;;
48813;SDS011;34634;44.108;3.074;2023-05-21T02:43:23;7.75;;;4.55;;
48813;SDS011;34634;44.108;3.074;2023-05-21T02:45:49;7.07;;;4.50;;
48813;SDS011;34634;44.108;3.074;2023-05-21T02:48:15;5.35;;;4.85;;
48813;SDS011;34634;44.108;3.074;2023-05-21T02:50:42;5.40;;;4.45;;
48813;SDS011;34634;44.108;3.074;2023-05-21T02:53:08;5.97;;;4.25;;
48813;SDS011;34634;44.108;3.074;2023-05-21T02:55:34;6.38;;;4.80;;
48813;SDS011;34634;44.108;3.074;2023-05-21T02:58:00;6.32;;;4.90;;
48813;SDS011;34634;44.108;3.074;2023-05-21T03:00:27;7.32;;;5.10;;
48813;SDS011;34634;44.108;3.074;2023-05-21T03:02:53;8.13;;;5.15;;
48813;SDS011;34634;44.108;3.074;2023-05-21T03:05:19;6.03;;;4.82;;
48813;SDS011;34634;44.108;3.074;2023-05-21T03:07:46;8.82;;;5.60;;
48813;SDS011;34634;44.108;3.074;2023-05-21T03:10:12;7.35;;;5.03;;
48813;SDS011;34634;44.108;3.074;2023-05-21T03:12:38;9.52;;;5.05;;
48813;SDS011;34634;44.108;3.074;2023-05-21T03:15:05;6.10;;;4.68;;
48813;SDS011;34634;44.108;3.074;2023-05-21T03:17:31;6.72;;;4.85;;
48813;SDS011;34634;44.108;3.074;2023-05-21T03:19:57;5.70;;;4.80;;
48813;SDS011;34634;44.108;3.074;2023-05-21T03:22:24;5.63;;;4.80;;
48813;SDS011;34634;44.108;3.074;2023-05-21T03:24:50;5.75;;;5.00;;
48813;SDS011;34634;44.108;3.074;2023-05-21T03:27:17;6.35;;;4.75;;
48813;SDS011;34634;44.108;3.074;2023-05-21T03:29:44;6.93;;;5.13;;
48813;SDS011;34634;44.108;3.074;2023-05-21T03:32:10;5.68;;;4.90;;
48813;SDS011;34634;44.108;3.074;2023-05-21T03:34:36;10.77;;;5.10;;
48813;SDS011;34634;44.108;3.074;2023-05-21T03:37:03;6.35;;;4.68;;
48813;SDS011;34634;44.108;3.074;2023-05-21T03:39:29;8.75;;;5.10;;
48813;SDS011;34634;44.108;3.074;2023-05-21T03:41:55;5.63;;;4.93;;
48813;SDS011;34634;44.108;3.074;2023-05-21T03:44:22;6.70;;;4.80;;
48813;SDS011;34634;44.108;3.074;2023-05-21T03:46:48;6.07;;;5.28;;
48813;SDS011;34634;44.108;3.074;2023-05-21T03:49:14;6.00;;;5.10;;
48813;SDS011;34634;44.108;3.074;2023-05-21T03:51:41;5.82;;;4.68;;
48813;SDS011;34634;44.108;3.074;2023-05-21T03:54:07;5.88;;;5.13;;
48813;SDS011;34634;44.108;3.074;2023-05-21T03:56:33;7.95;;;5.13;;
48813;SDS011;34634;44.108;3.074;2023-05-21T03:58:59;7.60;;;5.00;;
48813;SDS011;34634;44.108;3.074;2023-05-21T04:01:26;6.13;;;4.93;;
48813;SDS011;34634;44.108;3.074;2023-05-21T04:03:52;5.93;;;5.32;;
48813;SDS011;34634;44.108;3.074;2023-05-21T04:06:19;6.55;;;4.68;;
48813;SDS011;34634;44.108;3.074;2023-05-21T04:08:45;7.15;;;4.80;;
48813;SDS011;34634;44.108;3.074;2023-05-21T04:11:12;7.40;;;4.95;;
48813;SDS011;34634;44.108;3.074;2023-05-21T04:13:38;5.65;;;4.72;;
48813;SDS011;34634;44.108;3.074;2023-05-21T04:16:05;6.45;;;5.50;;
48813;SDS011;34634;44.108;3.074;2023-05-21T04:18:33;9.25;;;5.72;;
48813;SDS011;34634;44.108;3.074;2023-05-21T04:21:00;7.22;;;5.30;;
48813;SDS011;34634;44.108;3.074;2023-05-21T04:23:26;7.00;;;5.60;;
48813;SDS011;34634;44.108;3.074;2023-05-21T04:25:52;7.38;;;5.65;;
48813;SDS011;34634;44.108;3.074;2023-05-21T04:28:19;8.55;;;5.88;;
48813;SDS011;34634;44.108;3.074;2023-05-21T04:30:48;8.27;;;5.95;;
48813;SDS011;34634;44.108;3.074;2023-05-21T04:33:14;8.43;;;6.28;;
48813;SDS011;34634;44.108;3.074;2023-05-21T04:35:42;7.03;;;5.57;;
48813;SDS011;34634;44.108;3.074;2023-05-21T04:38:11;7.32;;;4.85;;
48813;SDS011;34634;44.108;3.074;2023-05-21T04:40:38;5.00;;;4.50;;
48813;SDS011;34634;44.108;3.074;2023-05-21T04:43:04;6.55;;;5.50;;
48813;SDS011;34634;44.108;3.074;2023-05-21T04:45:32;6.13;;;5.20;;
48813;SDS011;34634;44.108;3.074;2023-05-21T04:47:58;7.00;;;4.97;;
48813;SDS011;34634;44.108;3.074;2023-05-21T04:50:24;7.03;;;5.70;;
48813;SDS011;34634;44.108;3.074;2023-05-21T04:52:51;6.47;;;5.25;;
48813;SDS011;34634;44.108;3.074;2023-05-21T04:55:18;7.72;;;5.45;;
48813;SDS011;34634;44.108;3.074;2023-05-21T04:57:45;7.32;;;5.60;;
48813;SDS011;34634;44.108;3.074;2023-05-21T05:00:12;6.15;;;5.35;;
48813;SDS011;34634;44.108;3.074;2023-05-21T05:02:38;7.57;;;5.53;;
48813;SDS011;34634;44.108;3.074;2023-05-21T05:05:04;6.40;;;5.60;;
48813;SDS011;34634;44.108;3.074;2023-05-21T05:07:31;6.32;;;5.65;;
48813;SDS011;34634;44.108;3.074;2023-05-21T05:09:57;6.28;;;5.50;;
48813;SDS011;34634;44.108;3.074;2023-05-21T05:12:24;6.60;;;5.82;;
48813;SDS011;34634;44.108;3.074;2023-05-21T05:14:50;9.10;;;5.22;;
48813;SDS011;34634;44.108;3.074;2023-05-21T05:17:16;8.63;;;5.47;;
48813;SDS011;34634;44.108;3.074;2023-05-21T05:19:42;8.55;;;5.75;;
48813;SDS011;34634;44.108;3.074;2023-05-21T05:22:09;7.03;;;4.90;;
48813;SDS011;34634;44.108;3.074;2023-05-21T05:24:35;6.10;;;5.45;;
48813;SDS011;34634;44.108;3.074;2023-05-21T05:27:02;7.10;;;5.20;;
48813;SDS011;34634;44.108;3.074;2023-05-21T05:29:28;8.95;;;5.03;;
48813;SDS011;34634;44.108;3.074;2023-05-21T05:31:54;5.00;;;4.50;;
48813;SDS011;34634;44.108;3.074;2023-05-21T05:34:20;5.88;;;5.28;;
48813;SDS011;34634;44.108;3.074;2023-05-21T05:36:47;7.50;;;5.15;;
48813;SDS011;34634;44.108;3.074;2023-05-21T05:39:13;5.75;;;4.97;;
48813;SDS011;34634;44.108;3.074;2023-05-21T05:41:39;5.63;;;4.68;;
48813;SDS011;34634;44.108;3.074;2023-05-21T05:44:06;5.03;;;4.53;;
48813;SDS011;34634;44.108;3.074;2023-05-21T05:46:32;4.93;;;4.43;;
48813;SDS011;34634;44.108;3.074;2023-05-21T05:48:58;6.25;;;5.15;;
48813;SDS011;34634;44.108;3.074;2023-05-21T05:51:25;4.68;;;4.22;;
48813;SDS011;34634;44.108;3.074;2023-05-21T05:53:51;5.40;;;4.90;;
48813;SDS011;34634;44.108;3.074;2023-05-21T05:56:17;6.18;;;4.72;;
48813;SDS011;34634;44.108;3.074;2023-05-21T05:58:43;6.97;;;5.15;;
48813;SDS011;34634;44.108;3.074;2023-05-21T06:01:10;7.13;;;4.55;;
48813;SDS011;34634;44.108;3.074;2023-05-21T06:03:37;8.68;;;4.90;;
48813;SDS011;34634;44.108;3.074;2023-05-21T06:06:03;6.22;;;4.90;;
48813;SDS011;34634;44.108;3.074;2023-05-21T06:08:30;7.25;;;4.95;;
48813;SDS011;34634;44.108;3.074;2023-05-21T06:10:59;5.70;;;5.10;;
48813;SDS011;34634;44.108;3.074;2023-05-21T06:13:25;8.88;;;4.97;;
48813;SDS011;34634;44.108;3.074;2023-05-21T06:15:52;6.43;;;4.88;;
48813;SDS011;34634;44.108;3.074;2023-05-21T06:18:18;6.15;;;4.45;;
48813;SDS011;34634;44.108;3.074;2023-05-21T06:20:45;4.95;;;4.47;;
48813;SDS011;34634;44.108;3.074;2023-05-21T06:23:11;5.57;;;4.28;;
48813;SDS011;34634;44.108;3.074;2023-05-21T06:25:38;5.35;;;4.50;;
48813;SDS011;34634;44.108;3.074;2023-05-21T06:28:04;5.22;;;4.70;;
48813;SDS011;34634;44.108;3.074;2023-05-21T06:30:31;6.47;;;4.55;;
48813;SDS011;34634;44.108;3.074;2023-05-21T06:32:57;4.70;;;4.28;;
48813;SDS011;34634;44.108;3.074;2023-05-21T06:35:23;6.95;;;4.55;;
48813;SDS011;34634;44.108;3.074;2023-05-21T06:37:50;5.05;;;4.55;;
48813;SDS011;34634;44.108;3.074;2023-05-21T06:40:16;4.65;;;4.10;;
48813;SDS011;34634;44.108;3.074;2023-05-21T06:42:42;6.90;;;4.35;;
48813;SDS011;34634;44.108;3.074;2023-05-21T06:45:09;6.68;;;5.03;;
48813;SDS011;34634;44.108;3.074;2023-05-21T06:47:35;5.97;;;4.03;;
48813;SDS011;34634;44.108;3.074;2023-05-21T06:50:02;4.70;;;4.28;;
48813;SDS011;34634;44.108;3.074;2023-05-21T06:52:28;6.13;;;4.40;;
48813;SDS011;34634;44.108;3.074;2023-05-21T06:54:55;4.85;;;4.35;;
48813;SDS011;34634;44.108;3.074;2023-05-21T06:57:22;5.35;;;4.25;;
48813;SDS011;34634;44.108;3.074;2023-05-21T06:59:48;7.15;;;4.25;;
48813;SDS011;34634;44.108;3.074;2023-05-21T07:02:14;5.80;;;4.30;;
48813;SDS011;34634;44.108;3.074;2023-05-21T07:04:41;5.20;;;4.70;;
48813;SDS011;34634;44.108;3.074;2023-05-21T07:07:07;6.75;;;4.50;;
48813;SDS011;34634;44.108;3.074;2023-05-21T07:09:34;5.97;;;4.68;;
48813;SDS011;34634;44.108;3.074;2023-05-21T07:12:00;4.63;;;4.00;;
48813;SDS011;34634;44.108;3.074;2023-05-21T07:14:26;4.35;;;3.58;;
48813;SDS011;34634;44.108;3.074;2023-05-21T07:16:53;6.90;;;4.38;;
48813;SDS011;34634;44.108;3.074;2023-05-21T07:19:19;4.45;;;4.05;;
48813;SDS011;34634;44.108;3.074;2023-05-21T07:21:45;4.50;;;4.00;;
48813;SDS011;34634;44.108;3.074;2023-05-21T07:24:12;5.13;;;3.85;;
48813;SDS011;34634;44.108;3.074;2023-05-21T07:26:38;5.13;;;4.07;;
48813;SDS011;34634;44.108;3.074;2023-05-21T07:29:05;4.93;;;3.63;;
48813;SDS011;34634;44.108;3.074;2023-05-21T07:31:31;4.50;;;4.10;;
48813;SDS011;34634;44.108;3.074;2023-05-21T07:33:57;4.90;;;3.42;;
48813;SDS011;34634;44.108;3.074;2023-05-21T07:36:24;3.70;;;3.40;;
48813;SDS011;34634;44.108;3.074;2023-05-21T07:38:50;5.20;;;3.42;;
48813;SDS011;34634;44.108;3.074;2023-05-21T07:41:17;4.15;;;3.00;;
48813;SDS011;34634;44.108;3.074;2023-05-21T07:43:43;3.63;;;3.33;;
48813;SDS011;34634;44.108;3.074;2023-05-21T07:46:09;7.40;;;4.00;;
48813;SDS011;34634;44.108;3.074;2023-05-21T07:48:36;4.40;;;3.40;;
48813;SDS011;34634;44.108;3.074;2023-05-21T07:51:02;3.85;;;3.55;;
48813;SDS011;34634;44.108;3.074;2023-05-21T07:53:29;3.13;;;2.85;;
48813;SDS011;34634;44.108;3.074;2023-05-21T07:55:57;3.35;;;2.67;;
48813;SDS011;34634;44.108;3.074;2023-05-21T07:58:23;5.05;;;3.10;;
48813;SDS011;34634;44.108;3.074;2023-05-21T08:00:49;4.55;;;3.65;;
48813;SDS011;34634;44.108;3.074;2023-05-21T08:03:16;3.35;;;2.70;;
48813;SDS011;34634;44.108;3.074;2023-05-21T08:05:42;3.28;;;2.90;;
48813;SDS011;34634;44.108;3.074;2023-05-21T08:08:15;3.37;;;2.70;;
48813;SDS011;34634;44.108;3.074;2023-05-21T08:10:42;3.53;;;3.22;;
48813;SDS011;34634;44.108;3.074;2023-05-21T08:13:10;5.47;;;3.63;;
48813;SDS011;34634;44.108;3.074;2023-05-21T08:15:36;3.35;;;3.05;;
48813;SDS011;34634;44.108;3.074;2023-05-21T08:18:02;3.33;;;3.03;;
48813;SDS011;34634;44.108;3.074;2023-05-21T08:20:30;3.10;;;2.80;;
48813;SDS011;34634;44.108;3.074;2023-05-21T08:22:59;4.32;;;2.67;;
48813;SDS011;34634;44.108;3.074;2023-05-21T08:25:26;3.50;;;3.20;;
48813;SDS011;34634;44.108;3.074;2023-05-21T08:27:52;3.88;;;3.00;;
48813;SDS011;34634;44.108;3.074;2023-05-21T08:30:18;3.78;;;3.40;;
48813;SDS011;34634;44.108;3.074;2023-05-21T08:32:45;4.95;;;3.53;;
48813;SDS011;34634;44.108;3.074;2023-05-21T08:35:12;3.25;;;2.95;;
48813;SDS011;34634;44.108;3.074;2023-05-21T08:37:38;3.33;;;3.03;;
48813;SDS011;34634;44.108;3.074;2023-05-21T08:40:05;3.67;;;2.80;;
48813;SDS011;34634;44.108;3.074;2023-05-21T08:45:01;3.60;;;2.97;;
48813;SDS011;34634;44.108;3.074;2023-05-21T08:47:30;4.05;;;3.05;;
48813;SDS011;34634;44.108;3.074;2023-05-21T08:49:57;3.00;;;2.80;;
48813;SDS011;34634;44.108;3.074;2023-05-21T08:52:25;3.08;;;2.85;;
48813;SDS011;34634;44.108;3.074;2023-05-21T08:54:51;4.45;;;3.05;;
48813;SDS011;34634;44.108;3.074;2023-05-21T08:57:18;3.20;;;2.90;;
48813;SDS011;34634;44.108;3.074;2023-05-21T08:59:47;3.60;;;3.30;;
48813;SDS011;34634;44.108;3.074;2023-05-21T09:02:14;3.80;;;3.35;;
48813;SDS011;34634;44.108;3.074;2023-05-21T09:04:43;4.68;;;3.53;;
48813;SDS011;34634;44.108;3.074;2023-05-21T09:07:13;3.20;;;2.90;;
48813;SDS011;34634;44.108;3.074;2023-05-21T09:09:46;3.50;;;3.20;;
48813;SDS011;34634;44.108;3.074;2023-05-21T09:12:14;3.17;;;2.88;;
48813;SDS011;34634;44.108;3.074;2023-05-21T09:14:40;4.95;;;3.25;;
48813;SDS011;34634;44.108;3.074;2023-05-21T09:17:08;3.65;;;2.75;;
48813;SDS011;34634;44.108;3.074;2023-05-21T09:19:34;2.90;;;2.70;;
48813;SDS011;34634;44.108;3.074;2023-05-21T09:22:01;4.15;;;2.92;;
48813;SDS011;34634;44.108;3.074;2023-05-21T09:24:31;4.55;;;2.65;;
48813;SDS011;34634;44.108;3.074;2023-05-21T09:26:57;3.60;;;3.30;;
48813;SDS011;34634;44.108;3.074;2023-05-21T09:29:24;6.45;;;3.03;;
48813;SDS011;34634;44.108;3.074;2023-05-21T09:31:51;3.63;;;3.33;;
48813;SDS011;34634;44.108;3.074;2023-05-21T09:34:19;3.83;;;3.45;;
48813;SDS011;34634;44.108;3.074;2023-05-21T09:36:47;3.30;;;3.00;;
48813;SDS011;34634;44.108;3.074;2023-05-21T09:39:26;3.67;;;3.15;;
48813;SDS011;34634;44.108;3.074;2023-05-21T09:41:55;3.00;;;2.70;;
48813;SDS011;34634;44.108;3.074;2023-05-21T09:44:21;3.50;;;2.70;;
48813;SDS011;34634;44.108;3.074;2023-05-21T09:46:48;3.25;;;2.60;;
48813;SDS011;34634;44.108;3.074;2023-05-21T09:49:24;3.42;;;2.65;;
48813;SDS011;34634;44.108;3.074;2023-05-21T09:51:54;3.60;;;3.30;;
48813;SDS011;34634;44.108;3.074;2023-05-21T09:54:21;5.72;;;3.05;;
48813;SDS011;34634;44.108;3.074;2023-05-21T09:56:49;3.53;;;3.22;;
48813;SDS011;34634;44.108;3.074;2023-05-21T09:59:17;4.63;;;3.05;;
48813;SDS011;34634;44.108;3.074;2023-05-21T10:01:43;3.15;;;2.85;;
48813;SDS011;34634;44.108;3.074;2023-05-21T10:04:10;3.25;;;2.95;;
48813;SDS011;34634;44.108;3.074;2023-05-21T10:06:38;3.33;;;3.03;;
48813;SDS011;34634;44.108;3.074;2023-05-21T10:09:08;3.10;;;2.90;;
48813;SDS011;34634;44.108;3.074;2023-05-21T10:11:35;3.47;;;3.17;;
48813;SDS011;34634;44.108;3.074;2023-05-21T10:14:14;3.35;;;2.80;;
48813;SDS011;34634;44.108;3.074;2023-05-21T10:16:41;3.20;;;2.90;;
48813;SDS011;34634;44.108;3.074;2023-05-21T10:19:09;2.88;;;2.63;;
48813;SDS011;34634;44.108;3.074;2023-05-21T10:21:35;3.15;;;2.50;;
48813;SDS011;34634;44.108;3.074;2023-05-21T10:24:02;3.00;;;2.70;;
48813;SDS011;34634;44.108;3.074;2023-05-21T10:26:29;2.70;;;2.38;;
48813;SDS011;34634;44.108;3.074;2023-05-21T10:28:55;2.60;;;2.40;;
48813;SDS011;34634;44.108;3.074;2023-05-21T10:31:25;3.25;;;2.40;;
48813;SDS011;34634;44.108;3.074;2023-05-21T10:33:52;2.72;;;2.50;;
48813;SDS011;34634;44.108;3.074;2023-05-21T10:36:19;3.10;;;2.80;;
48813;SDS011;34634;44.108;3.074;2023-05-21T10:38:46;3.05;;;2.35;;
48813;SDS011;34634;44.108;3.074;2023-05-21T10:41:13;3.28;;;2.72;;
48813;SDS011;34634;44.108;3.074;2023-05-21T10:51:44;2.60;;;2.40;;
48813;SDS011;34634;44.108;3.074;2023-05-21T10:55:15;3.30;;;2.50;;
48813;SDS011;34634;44.108;3.074;2023-05-21T10:59:39;5.40;;;3.30;;
48813;SDS011;34634;44.108;3.074;2023-05-21T11:02:07;3.38;;;3.08;;
48813;SDS011;34634;44.108;3.074;2023-05-21T11:04:34;4.00;;;2.47;;
48813;SDS011;34634;44.108;3.074;2023-05-21T11:07:04;3.70;;;3.40;;
48813;SDS011;34634;44.108;3.074;2023-05-21T11:09:30;2.67;;;2.20;;
48813;SDS011;34634;44.108;3.074;2023-05-21T11:11:57;5.38;;;2.92;;
48813;SDS011;34634;44.108;3.074;2023-05-21T11:14:25;3.28;;;2.63;;
48813;SDS011;34634;44.108;3.074;2023-05-21T11:16:51;3.42;;;2.60;;
48813;SDS011;34634;44.108;3.074;2023-05-21T11:19:18;2.45;;;2.25;;
48813;SDS011;34634;44.108;3.074;2023-05-21T11:21:50;2.55;;;2.35;;
48813;SDS011;34634;44.108;3.074;2023-05-21T11:24:19;2.47;;;2.28;;
48813;SDS011;34634;44.108;3.074;2023-05-21T11:29:20;2.40;;;2.20;;
48813;SDS011;34634;44.108;3.074;2023-05-21T11:31:59;2.28;;;2.08;;
48813;SDS011;34634;44.108;3.074;2023-05-21T11:34:31;4.07;;;2.45;;
48813;SDS011;34634;44.108;3.074;2023-05-21T11:39:43;2.00;;;1.77;;
48813;SDS011;34634;44.108;3.074;2023-05-21T11:42:10;2.22;;;1.83;;
48813;SDS011;34634;44.108;3.074;2023-05-21T11:44:39;2.38;;;1.90;;
48813;SDS011;34634;44.108;3.074;2023-05-21T11:47:07;1.80;;;1.70;;
48813;SDS011;34634;44.108;3.074;2023-05-21T11:49:34;1.70;;;1.60;;
48813;SDS011;34634;44.108;3.074;2023-05-21T11:52:00;2.50;;;1.35;;
48813;SDS011;34634;44.108;3.074;2023-05-21T11:54:27;1.30;;;1.20;;
48813;SDS011;34634;44.108;3.074;2023-05-21T11:56:58;1.75;;;1.35;;
48813;SDS011;34634;44.108;3.074;2023-05-21T11:59:26;1.30;;;1.15;;
48813;SDS011;34634;44.108;3.074;2023-05-21T12:01:53;1.65;;;1.30;;
48813;SDS011;34634;44.108;3.074;2023-05-21T12:04:20;2.03;;;1.40;;
48813;SDS011;34634;44.108;3.074;2023-05-21T12:06:46;1.52;;;1.30;;
48813;SDS011;34634;44.108;3.074;2023-05-21T12:09:14;1.70;;;1.30;;
48813;SDS011;34634;44.108;3.074;2023-05-21T12:11:41;1.00;;;1.00;;
48813;SDS011;34634;44.108;3.074;2023-05-21T12:14:08;0.90;;;0.90;;
48813;SDS011;34634;44.108;3.074;2023-05-21T12:16:35;0.80;;;0.80;;
48813;SDS011;34634;44.108;3.074;2023-05-21T12:19:02;1.17;;;0.60;;
48813;SDS011;34634;44.108;3.074;2023-05-21T12:21:29;0.82;;;0.82;;
48813;SDS011;34634;44.108;3.074;2023-05-21T12:23:55;0.80;;;0.77;;
48813;SDS011;34634;44.108;3.074;2023-05-21T12:26:22;1.13;;;0.88;;
48813;SDS011;34634;44.108;3.074;2023-05-21T12:28:55;1.13;;;1.03;;
48813;SDS011;34634;44.108;3.074;2023-05-21T12:31:22;1.30;;;1.20;;
48813;SDS011;34634;44.108;3.074;2023-05-21T12:33:51;2.58;;;1.30;;
48813;SDS011;34634;44.108;3.074;2023-05-21T12:36:39;1.65;;;1.55;;
48813;SDS011;34634;44.108;3.074;2023-05-21T12:39:07;0.82;;;0.82;;
48813;SDS011;34634;44.108;3.074;2023-05-21T12:41:33;0.85;;;0.80;;
48813;SDS011;34634;44.108;3.074;2023-05-21T12:43:59;0.88;;;0.80;;
48813;SDS011;34634;44.108;3.074;2023-05-21T12:46:26;0.75;;;0.60;;
48813;SDS011;34634;44.108;3.074;2023-05-21T12:48:53;0.88;;;0.75;;
48813;SDS011;34634;44.108;3.074;2023-05-21T12:51:19;0.55;;;0.52;;
48813;SDS011;34634;44.108;3.074;2023-05-21T12:53:46;1.40;;;0.50;;
48813;SDS011;34634;44.108;3.074;2023-05-21T12:56:13;1.33;;;0.60;;
48813;SDS011;34634;44.108;3.074;2023-05-21T12:58:40;0.75;;;0.70;;
48813;SDS011;34634;44.108;3.074;2023-05-21T13:01:07;1.80;;;0.60;;
48813;SDS011;34634;44.108;3.074;2023-05-21T13:03:34;0.70;;;0.70;;
48813;SDS011;34634;44.108;3.074;2023-05-21T13:06:00;0.73;;;0.73;;
48813;SDS011;34634;44.108;3.074;2023-05-21T13:08:27;1.30;;;0.70;;
48813;SDS011;34634;44.108;3.074;2023-05-21T13:10:53;0.60;;;0.60;;
48813;SDS011;34634;44.108;3.074;2023-05-21T13:13:20;0.80;;;0.60;;
48813;SDS011;34634;44.108;3.074;2023-05-21T13:15:46;1.17;;;0.90;;
48813;SDS011;34634;44.108;3.074;2023-05-21T13:18:12;2.83;;;0.80;;
48813;SDS011;34634;44.108;3.074;2023-05-21T13:20:40;1.45;;;0.60;;
48813;SDS011;34634;44.108;3.074;2023-05-21T13:23:06;2.08;;;0.60;;
48813;SDS011;34634;44.108;3.074;2023-05-21T13:25:33;2.53;;;0.93;;
48813;SDS011;34634;44.108;3.074;2023-05-21T13:28:00;0.80;;;0.50;;
48813;SDS011;34634;44.108;3.074;2023-05-21T13:30:27;1.00;;;1.00;;
48813;SDS011;34634;44.108;3.074;2023-05-21T13:32:53;1.65;;;1.08;;
48813;SDS011;34634;44.108;3.074;2023-05-21T13:35:19;1.45;;;0.70;;
48813;SDS011;34634;44.108;3.074;2023-05-21T13:37:46;1.17;;;0.77;;
48813;SDS011;34634;44.108;3.074;2023-05-21T13:40:13;3.92;;;0.50;;
48813;SDS011;34634;44.108;3.074;2023-05-21T13:42:39;0.77;;;0.60;;
48813;SDS011;34634;44.108;3.074;2023-05-21T13:45:06;0.40;;;0.40;;
48813;SDS011;34634;44.108;3.074;2023-05-21T13:47:33;0.52;;;0.50;;
48813;SDS011;34634;44.108;3.074;2023-05-21T13:50:00;1.85;;;0.50;;
48813;SDS011;34634;44.108;3.074;2023-05-21T13:52:26;4.05;;;0.75;;
48813;SDS011;34634;44.108;3.074;2023-05-21T13:54:52;0.50;;;0.50;;
48813;SDS011;34634;44.108;3.074;2023-05-21T13:57:19;1.33;;;0.60;;
48813;SDS011;34634;44.108;3.074;2023-05-21T13:59:45;1.27;;;0.50;;
48813;SDS011;34634;44.108;3.074;2023-05-21T14:02:12;3.42;;;0.60;;
48813;SDS011;34634;44.108;3.074;2023-05-21T14:04:38;2.80;;;0.75;;
48813;SDS011;34634;44.108;3.074;2023-05-21T14:07:05;0.80;;;0.60;;
48813;SDS011;34634;44.108;3.074;2023-05-21T14:09:31;2.65;;;0.90;;
48813;SDS011;34634;44.108;3.074;2023-05-21T14:11:57;2.10;;;0.60;;
48813;SDS011;34634;44.108;3.074;2023-05-21T14:14:24;0.50;;;0.50;;
48813;SDS011;34634;44.108;3.074;2023-05-21T14:16:50;0.60;;;0.57;;
48813;SDS011;34634;44.108;3.074;2023-05-21T14:19:17;0.52;;;0.52;;
48813;SDS011;34634;44.108;3.074;2023-05-21T14:21:43;1.15;;;0.60;;
48813;SDS011;34634;44.108;3.074;2023-05-21T14:24:10;1.40;;;0.60;;
48813;SDS011;34634;44.108;3.074;2023-05-21T14:26:36;3.65;;;0.60;;
48813;SDS011;34634;44.108;3.074;2023-05-21T14:29:02;0.68;;;0.68;;
48813;SDS011;34634;44.108;3.074;2023-05-21T14:31:29;1.27;;;1.08;;
48813;SDS011;34634;44.108;3.074;2023-05-21T14:33:55;0.68;;;0.50;;
48813;SDS011;34634;44.108;3.074;2023-05-21T14:36:21;1.65;;;0.40;;
48813;SDS011;34634;44.108;3.074;2023-05-21T14:38:48;0.45;;;0.40;;
48813;SDS011;34634;44.108;3.074;2023-05-21T14:41:14;0.85;;;0.50;;
48813;SDS011;34634;44.108;3.074;2023-05-21T14:43:41;2.78;;;0.50;;
48813;SDS011;34634;44.108;3.074;2023-05-21T14:46:07;0.95;;;0.40;;
48813;SDS011;34634;44.108;3.074;2023-05-21T14:48:33;2.58;;;0.60;;
48813;SDS011;34634;44.108;3.074;2023-05-21T14:50:59;1.75;;;0.70;;
48813;SDS011;34634;44.108;3.074;2023-05-21T14:53:26;0.77;;;0.70;;
48813;SDS011;34634;44.108;3.074;2023-05-21T14:55:52;4.47;;;0.80;;
48813;SDS011;34634;44.108;3.074;2023-05-21T14:58:19;0.60;;;0.60;;
48813;SDS011;34634;44.108;3.074;2023-05-21T15:00:45;1.70;;;0.85;;
48813;SDS011;34634;44.108;3.074;2023-05-21T15:03:12;0.70;;;0.60;;
48813;SDS011;34634;44.108;3.074;2023-05-21T15:05:38;1.05;;;0.70;;
48813;SDS011;34634;44.108;3.074;2023-05-21T15:08:04;1.67;;;0.65;;